Time;durP1;ratioP1;P1;durP2;ratioP2;P2;SDS_P1;SDS_P2;PMS_P1;PMS_P2;Temp;Humidity;BMP_temperature;BMP_pressure;BME280_temperature;BME280_humidity;BME280_pressure;Samples;Min_cycle;Max_cycle;Signal;HPM_P1;HPM_P2
2022/06/15 00:01:04;;;;;;;6.00;2.43;;;16.30;99.90;;;;;;5080068;28;20458;-80
2022/06/15 00:03:36;;;;;;;6.60;1.90;;;16.30;99.90;;;;;;5079296;28;20474;-80
2022/06/15 00:06:10;;;;;;;4.60;2.17;;;16.20;99.90;;;;;;5079977;28;20544;-80
2022/06/15 00:08:37;;;;;;;4.40;2.27;;;16.20;99.90;;;;;;5080078;28;20553;-80
2022/06/15 00:11:07;;;;;;;4.40;1.90;;;16.20;99.90;;;;;;5080693;28;20478;-79
2022/06/15 00:13:34;;;;;;;5.10;2.23;;;16.20;99.90;;;;;;5080172;28;20467;-80
2022/06/15 00:16:01;;;;;;;4.60;2.43;;;16.10;99.90;;;;;;5079835;28;20482;-80
2022/06/15 00:18:28;;;;;;;5.20;1.87;;;16.10;99.90;;;;;;5079215;28;20481;-79
2022/06/15 00:20:56;;;;;;;6.50;2.67;;;16.10;99.90;;;;;;5079063;28;20462;-80
2022/06/15 00:23:25;;;;;;;5.13;2.03;;;16.00;99.90;;;;;;5078824;28;20518;-79
2022/06/15 00:25:53;;;;;;;4.13;2.47;;;16.00;99.90;;;;;;5080605;28;20477;-78
2022/06/15 00:28:20;;;;;;;6.20;2.63;;;16.00;99.90;;;;;;5079749;28;20533;-78
2022/06/15 00:30:49;;;;;;;4.97;2.20;;;16.00;99.90;;;;;;5078727;28;20537;-80
2022/06/15 00:33:16;;;;;;;6.97;2.63;;;15.90;99.90;;;;;;5078934;28;20516;-79
2022/06/15 00:35:44;;;;;;;3.97;2.20;;;15.90;99.90;;;;;;5078707;28;20446;-79
2022/06/15 00:38:11;;;;;;;6.60;2.60;;;15.90;99.90;;;;;;5078313;28;20473;-79
2022/06/15 00:40:39;;;;;;;5.13;2.40;;;15.90;99.90;;;;;;5077955;28;20579;-79
2022/06/15 00:43:06;;;;;;;5.50;2.40;;;15.90;99.90;;;;;;5079028;28;20500;-79
2022/06/15 00:45:33;;;;;;;5.90;2.80;;;15.80;99.90;;;;;;5081050;28;20549;-79
2022/06/15 00:48:00;;;;;;;5.20;2.10;;;15.80;99.90;;;;;;5080202;28;20500;-78
2022/06/15 00:50:27;;;;;;;5.97;3.40;;;15.70;99.90;;;;;;5079592;28;20446;-80
2022/06/15 00:52:58;;;;;;;5.87;2.50;;;15.70;99.90;;;;;;5082042;28;21002;-79
2022/06/15 00:55:28;;;;;;;8.73;3.67;;;15.70;99.90;;;;;;5082921;28;20489;-80
2022/06/15 00:57:58;;;;;;;8.10;3.43;;;15.70;99.90;;;;;;5083985;28;20442;-80
2022/06/15 01:00:27;;;;;;;6.43;3.00;;;15.70;99.90;;;;;;5083496;28;20504;-79
2022/06/15 01:02:54;;;;;;;6.53;3.00;;;15.60;99.90;;;;;;5082527;28;20508;-79
2022/06/15 01:05:26;;;;;;;4.17;2.50;;;15.60;99.90;;;;;;5083562;28;20439;-80
2022/06/15 01:08:24;;;;;;;6.70;3.00;;;15.60;99.90;;;;;;5084701;28;20463;-79
2022/06/15 01:11:20;;;;;;;4.33;3.03;;;15.50;99.90;;;;;;5084109;28;20467;-79
2022/06/15 01:14:20;;;;;;;5.57;2.77;;;15.50;99.90;;;;;;5083902;28;20465;-80
2022/06/15 01:16:54;;;;;;;6.47;2.40;;;15.40;99.90;;;;;;5069065;28;20458;-80
2022/06/15 01:19:52;;;;;;;6.20;2.90;;;15.30;99.90;;;;;;5085011;28;20497;-80
2022/06/15 01:22:38;;;;;;;4.30;2.70;;;15.30;99.90;;;;;;5083432;28;20485;-81
2022/06/15 01:25:30;;;;;;;7.30;3.10;;;15.30;99.90;;;;;;5086655;28;20450;-80
2022/06/15 01:28:29;;;;;;;7.20;2.63;;;15.30;99.90;;;;;;5089252;28;20451;-78
2022/06/15 01:31:02;;;;;;;4.90;2.47;;;15.30;99.90;;;;;;5081190;28;20482;-79
2022/06/15 01:33:35;;;;;;;3.77;2.53;;;15.20;99.90;;;;;;5079917;28;20566;-80
2022/06/15 01:36:13;;;;;;;4.90;2.50;;;15.20;99.90;;;;;;5080544;28;20836;-79
2022/06/15 01:38:48;;;;;;;5.40;2.50;;;15.20;99.90;;;;;;5080742;28;20493;-78
2022/06/15 01:41:24;;;;;;;5.73;2.20;;;15.20;99.90;;;;;;5079796;28;20446;-78
2022/06/15 01:43:57;;;;;;;5.60;2.40;;;15.20;99.90;;;;;;5080234;28;20553;-78
2022/06/15 01:46:27;;;;;;;7.03;2.80;;;15.20;99.90;;;;;;5080352;28;20529;-78
2022/06/15 01:48:57;;;;;;;5.87;2.90;;;15.10;99.90;;;;;;5080580;28;20477;-79
2022/06/15 01:51:30;;;;;;;7.80;2.47;;;15.10;99.90;;;;;;5079622;28;20524;-78
2022/06/15 01:54:00;;;;;;;4.70;3.13;;;15.00;99.90;;;;;;5079315;28;20514;-80
2022/06/15 01:56:31;;;;;;;7.33;2.60;;;15.00;99.90;;;;;;5080259;28;20466;-79
2022/06/15 01:59:01;;;;;;;8.20;4.10;;;14.90;99.90;;;;;;5080058;28;20446;-78
2022/06/15 02:01:36;;;;;;;6.43;2.90;;;14.90;99.90;;;;;;5079889;28;20482;-78
2022/06/15 02:04:12;;;;;;;4.80;2.90;;;14.90;99.90;;;;;;5079193;28;20533;-79
2022/06/15 02:06:46;;;;;;;4.60;2.80;;;14.90;99.90;;;;;;5079627;28;21068;-77
2022/06/15 02:09:20;;;;;;;6.03;2.90;;;14.80;99.90;;;;;;5079827;28;20490;-78
2022/06/15 02:11:48;;;;;;;6.50;2.90;;;14.80;99.90;;;;;;5080504;28;20493;-79
2022/06/15 02:14:19;;;;;;;4.80;2.67;;;14.70;99.90;;;;;;5079875;28;20475;-78
2022/06/15 02:16:53;;;;;;;9.23;3.63;;;14.70;99.90;;;;;;5080439;28;20454;-77
2022/06/15 02:19:25;;;;;;;4.63;2.50;;;14.60;99.90;;;;;;5081356;28;20579;-78
2022/06/15 02:21:54;;;;;;;3.40;2.53;;;14.60;99.90;;;;;;5080537;28;20537;-80
2022/06/15 02:24:22;;;;;;;6.17;3.00;;;14.50;99.90;;;;;;5080586;28;20569;-79
2022/06/15 02:26:50;;;;;;;4.57;2.70;;;14.50;99.90;;;;;;5079389;28;20831;-79
2022/06/15 02:29:21;;;;;;;7.70;2.83;;;14.50;99.90;;;;;;5080955;28;20532;-79
2022/06/15 02:31:50;;;;;;;6.60;2.90;;;14.40;99.90;;;;;;5081024;28;20534;-81
2022/06/15 02:34:16;;;;;;;5.70;3.00;;;14.40;99.90;;;;;;5081534;28;20481;-81
2022/06/15 02:36:43;;;;;;;5.63;2.80;;;14.30;99.90;;;;;;5082671;28;20479;-80
2022/06/15 02:39:11;;;;;;;5.17;2.80;;;14.30;99.90;;;;;;5082999;28;20490;-79
2022/06/15 02:41:38;;;;;;;4.13;2.97;;;14.20;99.90;;;;;;5087310;28;20504;-77
2022/06/15 02:44:07;;;;;;;5.83;3.20;;;14.20;99.90;;;;;;5084434;28;20478;-80
2022/06/15 02:46:38;;;;;;;5.97;3.17;;;14.20;99.90;;;;;;5078881;28;20439;-79
2022/06/15 02:49:07;;;;;;;4.93;2.60;;;14.20;99.90;;;;;;5078504;28;20481;-79
2022/06/15 02:51:40;;;;;;;5.43;2.87;;;14.10;99.90;;;;;;5078404;28;20520;-80
2022/06/15 02:54:12;;;;;;;5.73;3.30;;;14.10;99.90;;;;;;5077647;28;20562;-80
2022/06/15 02:56:39;;;;;;;5.50;2.60;;;14.10;99.90;;;;;;5078833;28;20486;-78
2022/06/15 02:59:07;;;;;;;5.40;2.87;;;14.00;99.90;;;;;;5078533;28;20539;-79
2022/06/15 03:01:36;;;;;;;4.57;2.63;;;14.00;99.90;;;;;;5078221;28;20454;-78
2022/06/15 03:04:03;;;;;;;5.47;3.00;;;13.90;99.90;;;;;;5078447;28;20468;-78
2022/06/15 03:06:31;;;;;;;4.10;2.97;;;13.90;99.90;;;;;;5078588;28;20460;-80
2022/06/15 03:08:59;;;;;;;6.83;3.00;;;13.90;99.90;;;;;;5078408;28;20477;-78
2022/06/15 03:11:27;;;;;;;7.23;3.03;;;13.80;99.90;;;;;;5077947;28;20457;-77
2022/06/15 03:13:55;;;;;;;5.60;3.10;;;13.80;99.90;;;;;;5077512;28;20477;-78
2022/06/15 03:16:22;;;;;;;5.70;3.80;;;13.80;99.90;;;;;;5078699;28;20540;-77
2022/06/15 03:18:50;;;;;;;5.93;3.77;;;13.80;99.90;;;;;;5077876;28;20530;-77
2022/06/15 03:21:17;;;;;;;8.97;3.53;;;13.80;99.90;;;;;;5077496;28;21059;-79
2022/06/15 03:23:45;;;;;;;5.53;2.73;;;13.80;99.90;;;;;;5076790;28;20478;-79
2022/06/15 03:26:12;;;;;;;5.80;3.77;;;13.80;99.90;;;;;;5077688;28;20458;-78
2022/06/15 03:28:39;;;;;;;6.40;3.20;;;13.80;99.90;;;;;;5077223;28;21038;-79
2022/06/15 03:31:07;;;;;;;6.70;3.80;;;13.80;99.90;;;;;;5078460;28;20444;-79
2022/06/15 03:33:33;;;;;;;6.00;3.10;;;13.80;99.90;;;;;;5077473;28;20545;-77
2022/06/15 03:36:00;;;;;;;7.83;3.70;;;13.80;99.90;;;;;;5077587;28;20445;-77
2022/06/15 03:38:28;;;;;;;8.23;3.97;;;13.80;99.90;;;;;;5078090;28;20561;-77
2022/06/15 03:40:56;;;;;;;4.20;3.20;;;13.80;99.90;;;;;;5076316;28;20482;-78
2022/06/15 03:43:23;;;;;;;9.10;3.60;;;13.80;99.90;;;;;;5076938;28;20476;-78
2022/06/15 03:45:50;;;;;;;4.73;3.20;;;13.80;99.90;;;;;;5077219;28;20546;-78
2022/06/15 03:48:17;;;;;;;5.67;3.43;;;13.80;99.90;;;;;;5077340;28;20531;-77
2022/06/15 03:50:44;;;;;;;5.30;3.53;;;13.80;99.90;;;;;;5077518;28;20951;-77
2022/06/15 03:53:12;;;;;;;10.10;4.13;;;13.70;99.90;;;;;;5076683;28;20580;-77
2022/06/15 03:55:40;;;;;;;6.27;3.90;;;13.80;99.90;;;;;;5077771;28;20538;-78
2022/06/15 03:58:10;;;;;;;7.17;3.80;;;13.80;99.90;;;;;;5077484;28;20512;-77
2022/06/15 04:00:37;;;;;;;6.57;3.93;;;13.80;99.90;;;;;;5078015;28;20570;-77
2022/06/15 04:03:04;;;;;;;6.40;4.50;;;13.80;99.90;;;;;;5077602;28;20563;-77
2022/06/15 04:05:34;;;;;;;6.93;3.87;;;13.80;99.90;;;;;;5078040;28;20491;-78
2022/06/15 04:10:45;;;;;;;5.50;3.43;;;13.80;99.90;;;;;;5077907;28;20423;-77
2022/06/15 04:13:14;;;;;;;5.77;3.80;;;13.90;99.90;;;;;;5076676;28;20480;-77
2022/06/15 04:15:41;;;;;;;5.40;4.20;;;13.90;99.90;;;;;;5078027;28;20477;-77
2022/06/15 04:18:08;;;;;;;6.00;4.27;;;13.90;99.90;;;;;;5077054;28;20447;-77
2022/06/15 04:20:36;;;;;;;5.87;4.23;;;14.00;99.90;;;;;;5077469;28;20507;-79
2022/06/15 04:23:06;;;;;;;7.97;4.50;;;14.00;99.90;;;;;;5076937;28;20612;-78
2022/06/15 04:25:36;;;;;;;4.60;3.80;;;14.00;99.90;;;;;;5077924;28;20501;-78
2022/06/15 04:28:04;;;;;;;10.67;4.30;;;14.10;99.90;;;;;;5081246;28;20458;-78
2022/06/15 04:30:32;;;;;;;6.43;4.20;;;14.10;99.90;;;;;;5080941;28;20845;-77
2022/06/15 04:32:59;;;;;;;7.23;4.80;;;14.10;99.90;;;;;;5080354;28;20512;-78
2022/06/15 04:35:26;;;;;;;7.90;4.40;;;14.20;99.90;;;;;;5103100;22;20518;-78
2022/06/15 04:37:54;;;;;;;7.00;4.27;;;14.20;99.90;;;;;;5090627;28;20467;-78
2022/06/15 04:40:21;;;;;;;5.87;3.63;;;14.30;99.90;;;;;;5083115;28;20486;-78
2022/06/15 04:42:48;;;;;;;8.37;4.43;;;14.40;99.90;;;;;;5082762;28;20473;-79
2022/06/15 04:45:16;;;;;;;7.73;4.90;;;14.50;99.90;;;;;;5084335;28;20490;-79
2022/06/15 04:47:45;;;;;;;7.57;4.33;;;14.50;99.90;;;;;;5083490;28;20450;-78
2022/06/15 04:50:14;;;;;;;10.60;4.37;;;14.50;99.90;;;;;;5083670;28;20956;-80
2022/06/15 04:52:42;;;;;;;5.90;4.37;;;14.60;99.90;;;;;;5088462;28;20550;-80
2022/06/15 04:55:10;;;;;;;10.70;4.97;;;14.70;99.90;;;;;;5088183;28;20464;-79
2022/06/15 04:57:37;;;;;;;8.30;4.30;;;14.70;99.90;;;;;;5088794;28;20469;-80
2022/06/15 05:00:07;;;;;;;8.13;4.37;;;14.80;99.90;;;;;;5086293;28;20545;-79
2022/06/15 05:02:34;;;;;;;7.20;4.10;;;14.80;99.90;;;;;;5083725;28;20954;-78
2022/06/15 05:05:03;;;;;;;8.30;3.57;;;14.90;99.90;;;;;;5084650;28;21039;-79
2022/06/15 05:07:30;;;;;;;7.17;4.37;;;15.00;99.90;;;;;;5084236;28;20465;-78
2022/06/15 05:09:57;;;;;;;8.80;4.50;;;15.00;99.90;;;;;;5087762;28;20442;-82
2022/06/15 05:12:24;;;;;;;5.23;3.20;;;15.10;99.90;;;;;;5088632;28;20476;-81
2022/06/15 05:14:51;;;;;;;6.93;4.23;;;15.20;99.90;;;;;;5088905;28;20501;-80
2022/06/15 05:17:20;;;;;;;9.47;4.83;;;15.30;99.90;;;;;;5088648;28;20485;-81
2022/06/15 05:19:47;;;;;;;4.60;3.53;;;15.30;99.90;;;;;;5089479;28;20478;-80
2022/06/15 05:22:15;;;;;;;7.07;4.10;;;15.40;99.90;;;;;;5089534;28;20514;-80
2022/06/15 05:24:42;;;;;;;5.27;3.50;;;15.50;99.90;;;;;;5087890;28;20531;-81
2022/06/15 05:27:09;;;;;;;5.50;3.50;;;15.50;99.90;;;;;;5089042;28;20457;-81
2022/06/15 05:29:37;;;;;;;6.60;4.10;;;15.60;99.90;;;;;;5088779;28;20511;-82
2022/06/15 05:32:05;;;;;;;7.77;4.93;;;15.60;99.90;;;;;;5089301;28;20446;-82
2022/06/15 05:34:32;;;;;;;6.03;3.87;;;15.60;99.90;;;;;;5087552;28;20526;-81
2022/06/15 05:36:59;;;;;;;8.37;4.40;;;15.60;99.90;;;;;;5087938;28;20482;-80
2022/06/15 05:39:28;;;;;;;5.60;4.27;;;15.70;99.90;;;;;;5088712;28;20481;-82
2022/06/15 05:41:55;;;;;;;8.77;4.03;;;15.80;99.90;;;;;;5089759;28;20482;-81
2022/06/15 05:44:26;;;;;;;7.40;3.30;;;15.90;99.90;;;;;;5089701;28;20457;-81
2022/06/15 05:46:57;;;;;;;5.20;3.67;;;15.90;99.90;;;;;;5091105;28;20469;-81
2022/06/15 05:49:24;;;;;;;11.10;4.20;;;15.90;99.90;;;;;;5090751;28;20518;-80
2022/06/15 05:51:51;;;;;;;7.17;3.67;;;16.00;99.90;;;;;;5083141;28;20477;-81
2022/06/15 05:54:18;;;;;;;6.33;3.90;;;16.00;99.90;;;;;;5083681;28;20483;-78
2022/06/15 05:56:47;;;;;;;6.10;3.40;;;16.10;99.90;;;;;;5082296;28;20957;-80
2022/06/15 05:59:14;;;;;;;6.50;4.20;;;16.20;99.90;;;;;;5079876;28;20529;-79
2022/06/15 06:01:42;;;;;;;6.10;3.63;;;16.30;99.90;;;;;;5078587;28;20554;-79
2022/06/15 06:04:12;;;;;;;5.67;3.27;;;16.40;99.90;;;;;;5078960;28;20457;-78
2022/06/15 06:06:38;;;;;;;10.10;5.00;;;16.50;99.90;;;;;;5078962;28;20450;-79
2022/06/15 06:09:05;;;;;;;9.40;4.60;;;16.50;99.90;;;;;;5078661;28;20549;-79
2022/06/15 06:11:32;;;;;;;7.53;3.97;;;16.60;99.90;;;;;;5080059;28;20477;-80
2022/06/15 06:14:00;;;;;;;8.43;3.10;;;16.60;99.90;;;;;;5081675;28;20839;-80
2022/06/15 06:16:27;;;;;;;6.27;3.30;;;16.70;99.90;;;;;;5082300;28;20498;-78
2022/06/15 06:18:54;;;;;;;6.00;2.63;;;16.80;99.90;;;;;;5082171;28;20479;-81
2022/06/15 06:21:21;;;;;;;4.10;2.70;;;16.90;99.90;;;;;;5081265;28;20517;-78
2022/06/15 06:23:48;;;;;;;6.10;3.33;;;17.00;99.90;;;;;;5082503;28;21016;-78
2022/06/15 06:26:20;;;;;;;6.33;3.77;;;17.00;99.90;;;;;;5081193;28;20458;-78
2022/06/15 06:28:47;;;;;;;6.40;3.53;;;17.10;99.90;;;;;;5083568;28;20442;-79
2022/06/15 06:31:16;;;;;;;5.40;3.23;;;17.10;99.90;;;;;;5083840;28;20474;-80
2022/06/15 06:33:43;;;;;;;7.83;3.50;;;17.20;99.90;;;;;;5084994;28;20490;-80
2022/06/15 06:36:17;;;;;;;5.40;3.30;;;17.30;99.90;;;;;;5082657;28;20487;-79
2022/06/15 06:38:44;;;;;;;6.97;3.67;;;17.30;99.90;;;;;;5084264;28;20478;-80
2022/06/15 06:41:11;;;;;;;5.20;3.40;;;17.40;99.90;;;;;;5087242;28;20503;-79
2022/06/15 06:43:38;;;;;;;6.87;4.03;;;17.50;99.90;;;;;;5079061;28;20454;-78
2022/06/15 06:46:05;;;;;;;7.30;4.03;;;17.50;99.90;;;;;;5078736;28;20508;-77
2022/06/15 06:48:34;;;;;;;6.83;3.43;;;17.40;99.90;;;;;;5078539;28;20483;-79
2022/06/15 06:51:00;;;;;;;7.93;3.27;;;17.50;99.90;;;;;;5078608;28;20440;-78
2022/06/15 06:53:27;;;;;;;7.70;4.00;;;17.60;99.90;;;;;;5078157;28;20462;-79
2022/06/15 06:55:54;;;;;;;6.23;3.57;;;17.70;99.90;;;;;;5079424;28;20556;-79
2022/06/15 06:58:21;;;;;;;9.93;4.43;;;17.80;99.90;;;;;;5080036;28;20555;-79
2022/06/15 07:00:50;;;;;;;6.77;3.20;;;17.80;99.90;;;;;;5079494;28;20511;-79
2022/06/15 07:03:17;;;;;;;7.90;3.63;;;18.00;99.90;;;;;;5080141;28;20777;-79
2022/06/15 07:05:46;;;;;;;5.87;3.43;;;18.00;99.90;;;;;;5079980;28;20500;-80
2022/06/15 07:08:14;;;;;;;5.57;3.20;;;18.10;99.90;;;;;;5078886;28;20509;-79
2022/06/15 07:10:41;;;;;;;12.57;3.90;;;18.20;99.90;;;;;;5078599;28;20475;-80
2022/06/15 07:13:08;;;;;;;8.60;3.90;;;18.30;99.90;;;;;;5080893;28;20812;-80
2022/06/15 07:15:36;;;;;;;8.03;3.23;;;18.40;99.90;;;;;;5080970;28;20512;-79
2022/06/15 07:18:04;;;;;;;9.93;3.60;;;18.60;99.90;;;;;;5081637;28;20454;-78
2022/06/15 07:20:32;;;;;;;6.63;3.00;;;18.70;99.90;;;;;;5080524;28;20454;-77
2022/06/15 07:23:00;;;;;;;10.27;4.00;;;18.80;99.90;;;;;;5077387;28;20450;-78
2022/06/15 07:25:27;;;;;;;6.33;3.47;;;18.80;99.90;;;;;;5086628;28;20511;-78
2022/06/15 07:27:54;;;;;;;6.53;3.23;;;18.90;99.90;;;;;;5082381;28;20438;-78
2022/06/15 07:30:23;;;;;;;7.37;3.30;;;18.80;99.90;;;;;;5080562;28;20488;-79
2022/06/15 07:32:50;;;;;;;4.30;2.47;;;19.00;99.90;;;;;;5078710;28;20536;-80
2022/06/15 07:35:21;;;;;;;5.50;2.60;;;19.20;99.90;;;;;;5076796;28;20478;-77
2022/06/15 07:37:48;;;;;;;8.90;2.87;;;19.40;99.90;;;;;;5076415;28;20457;-78
2022/06/15 07:40:17;;;;;;;8.77;3.93;;;19.60;99.90;;;;;;5075768;28;20953;-79
2022/06/15 07:42:45;;;;;;;4.73;2.70;;;19.50;99.90;;;;;;5077185;28;20519;-80
2022/06/15 07:45:12;;;;;;;9.63;3.20;;;19.50;99.90;;;;;;5076683;28;20518;-79
2022/06/15 07:50:23;;;;;;;7.20;3.43;;;19.70;99.90;;;;;;5076125;28;20409;-78
2022/06/15 07:52:53;;;;;;;8.50;3.60;;;19.90;99.90;;;;;;5076478;28;20533;-78
2022/06/15 07:55:25;;;;;;;4.70;2.83;;;19.80;99.90;;;;;;5076264;28;20467;-79
2022/06/15 07:57:52;;;;;;;6.80;2.30;;;20.00;99.90;;;;;;5076198;28;20431;-79
2022/06/15 08:00:20;;;;;;;7.80;2.73;;;20.30;99.90;;;;;;5076219;28;20454;-81
2022/06/15 08:02:49;;;;;;;8.73;2.37;;;20.50;99.90;;;;;;5079845;28;20854;-79
2022/06/15 08:05:16;;;;;;;7.97;2.50;;;20.60;99.90;;;;;;5079748;28;20510;-78
2022/06/15 08:07:45;;;;;;;4.07;2.50;;;20.80;99.90;;;;;;5079349;28;20481;-79
2022/06/15 08:10:13;;;;;;;6.60;2.60;;;21.00;99.90;;;;;;5080431;28;20834;-81
2022/06/15 08:12:41;;;;;;;3.77;2.20;;;21.20;99.90;;;;;;5080351;28;20947;-79
2022/06/15 08:15:10;;;;;;;4.17;2.60;;;21.40;99.90;;;;;;5080903;28;20577;-79
2022/06/15 08:17:41;;;;;;;5.17;2.40;;;21.50;99.90;;;;;;5081046;28;20490;-78
2022/06/15 08:20:12;;;;;;;6.53;2.40;;;21.70;99.90;;;;;;5084001;28;20477;-80
2022/06/15 08:22:42;;;;;;;7.03;2.23;;;21.90;99.90;;;;;;5078508;28;20486;-78
2022/06/15 08:25:12;;;;;;;5.77;2.03;;;22.00;99.90;;;;;;5077898;28;20471;-79
2022/06/15 08:27:39;;;;;;;7.30;2.80;;;22.30;99.90;;;;;;5078613;28;20501;-78
2022/06/15 08:30:10;;;;;;;4.17;2.20;;;22.50;99.90;;;;;;5078022;28;20483;-78
2022/06/15 08:32:37;;;;;;;4.10;1.70;;;22.60;99.90;;;;;;5077384;28;20811;-78
2022/06/15 08:35:05;;;;;;;9.10;2.73;;;22.90;99.90;;;;;;5077231;28;20518;-80
2022/06/15 08:37:33;;;;;;;7.77;2.37;;;23.00;99.90;;;;;;5080750;28;20848;-82
2022/06/15 08:40:00;;;;;;;5.10;2.40;;;23.10;99.90;;;;;;5079718;28;20450;-79
2022/06/15 08:42:35;;;;;;;4.23;2.10;;;23.20;99.90;;;;;;5077131;28;20483;-80
2022/06/15 08:45:17;;;;;;;4.20;2.00;;;23.40;99.90;;;;;;5083565;28;20513;-82
2022/06/15 08:48:02;;;;;;;6.90;2.80;;;23.50;99.90;;;;;;5085203;28;20439;-79
2022/06/15 08:50:35;;;;;;;3.67;1.97;;;23.70;99.90;;;;;;5076860;28;20449;-79
2022/06/15 08:53:13;;;;;;;7.17;3.40;;;24.00;99.90;;;;;;5076412;28;20432;-79
2022/06/15 08:55:46;;;;;;;8.10;2.73;;;24.10;99.90;;;;;;5077363;28;20910;-79
2022/06/15 08:58:20;;;;;;;5.83;2.43;;;24.20;99.90;;;;;;5077695;28;20529;-78
2022/06/15 09:00:52;;;;;;;4.10;2.57;;;24.40;99.90;;;;;;5077485;28;20488;-79
2022/06/15 09:03:27;;;;;;;5.63;2.37;;;24.70;99.90;;;;;;5084779;28;20438;-79
2022/06/15 09:06:13;;;;;;;7.57;3.10;;;24.90;99.90;;;;;;5083474;28;20474;-81
2022/06/15 09:09:01;;;;;;;7.20;3.17;;;25.00;99.90;;;;;;5083178;28;20434;-80
2022/06/15 09:11:39;;;;;;;5.40;2.57;;;25.10;99.90;;;;;;5083538;28;20512;-79
2022/06/15 09:14:21;;;;;;;7.70;3.60;;;25.20;99.90;;;;;;5090882;28;20481;-79
2022/06/15 09:16:56;;;;;;;4.60;3.30;;;25.30;99.90;;;;;;5078989;28;20435;-80
2022/06/15 09:19:29;;;;;;;5.10;3.17;;;25.40;99.90;;;;;;5078605;28;20958;-78
2022/06/15 09:22:00;;;;;;;6.77;3.10;;;25.50;99.90;;;;;;5078906;28;20575;-79
2022/06/15 09:24:33;;;;;;;6.60;3.60;;;25.60;99.90;;;;;;5079525;28;20527;-78
2022/06/15 09:27:03;;;;;;;6.33;4.13;;;25.80;99.90;;;;;;5080772;28;20450;-78
2022/06/15 09:29:35;;;;;;;10.47;4.60;;;25.70;99.90;;;;;;5081384;28;20890;-78
2022/06/15 09:32:08;;;;;;;12.73;3.40;;;25.90;99.90;;;;;;5081549;28;20478;-79
2022/06/15 09:34:38;;;;;;;5.63;3.67;;;26.10;99.90;;;;;;5081595;28;20514;-79
2022/06/15 09:37:12;;;;;;;5.47;3.03;;;26.30;99.90;;;;;;5081818;28;20489;-78
2022/06/15 09:39:39;;;;;;;4.40;2.90;;;26.50;99.90;;;;;;5081601;28;20551;-78
2022/06/15 09:42:14;;;;;;;5.40;2.90;;;26.80;99.90;;;;;;5082383;28;20487;-78
2022/06/15 09:44:53;;;;;;;4.20;2.30;;;27.10;99.90;;;;;;5082810;28;20577;-79
2022/06/15 09:47:35;;;;;;;4.80;3.27;;;27.30;99.90;;;;;;5082626;28;20454;-80
2022/06/15 09:50:14;;;;;;;5.47;2.80;;;27.40;99.90;;;;;;5081772;28;20450;-79
2022/06/15 09:52:55;;;;;;;5.50;3.43;;;27.50;99.90;;;;;;5081347;28;20442;-80
2022/06/15 09:55:31;;;;;;;5.63;3.10;;;27.60;99.90;;;;;;5082502;28;20478;-81
2022/06/15 09:57:59;;;;;;;4.50;2.20;;;27.70;99.90;;;;;;5083169;28;20439;-80
2022/06/15 10:00:26;;;;;;;5.17;3.40;;;27.90;99.90;;;;;;5083445;28;20497;-79
2022/06/15 10:02:59;;;;;;;7.73;3.73;;;27.80;99.90;;;;;;5082548;28;20486;-78
2022/06/15 10:05:30;;;;;;;8.63;3.47;;;27.80;99.90;;;;;;5083078;28;20561;-78
2022/06/15 10:07:59;;;;;;;9.90;3.20;;;27.90;99.90;;;;;;5082208;28;20459;-79
2022/06/15 10:10:31;;;;;;;7.43;3.10;;;27.90;99.90;;;;;;5082934;28;20503;-79
2022/06/15 10:13:03;;;;;;;5.57;2.40;;;27.90;99.90;;;;;;5086411;28;20455;-77
2022/06/15 10:15:52;;;;;;;3.97;2.57;;;27.90;99.90;;;;;;5085319;28;20475;-78
2022/06/15 10:18:27;;;;;;;5.13;2.10;;;27.90;99.90;;;;;;5085499;28;20435;-81
2022/06/15 10:21:01;;;;;;;5.40;2.20;;;28.20;99.90;;;;;;5082831;28;20442;-77
2022/06/15 10:23:39;;;;;;;5.37;2.30;;;28.30;99.90;;;;;;5081338;28;20471;-79
2022/06/15 10:26:09;;;;;;;7.07;2.90;;;28.40;99.90;;;;;;5082242;28;20471;-79
2022/06/15 10:28:38;;;;;;;7.07;2.43;;;28.50;99.90;;;;;;5081849;28;20443;-80
2022/06/15 10:31:08;;;;;;;6.93;2.47;;;28.60;99.90;;;;;;5082869;28;20455;-82
2022/06/15 10:33:39;;;;;;;4.13;2.50;;;28.60;99.90;;;;;;5082550;28;20478;-80
2022/06/15 10:36:17;;;;;;;5.53;1.93;;;28.80;99.90;;;;;;5102169;22;20596;-80
2022/06/15 10:38:49;;;;;;;4.07;2.63;;;28.90;99.90;;;;;;5079198;28;20525;-81
2022/06/15 10:44:24;;;;;;;5.97;2.47;;;29.10;99.90;;;;;;5055149;28;20424;-78
2022/06/15 10:46:54;;;;;;;10.83;3.10;;;28.90;99.90;;;;;;5055158;28;20464;-80
2022/06/15 10:49:23;;;;;;;6.33;3.00;;;29.10;99.90;;;;;;5066553;28;20505;-80
2022/06/15 10:51:51;;;;;;;7.70;2.33;;;29.10;99.90;;;;;;5077233;28;20477;-80
2022/06/15 10:54:29;;;;;;;5.37;2.57;;;29.40;99.90;;;;;;5078216;28;20535;-82
2022/06/15 11:02:46;;;;;;;4.63;2.40;;;29.50;99.90;;;;;;5076119;28;20555;-82
2022/06/15 11:05:17;;;;;;;6.47;2.10;;;29.50;99.90;;;;;;5077117;28;20478;-80
2022/06/15 11:07:47;;;;;;;5.30;2.50;;;29.70;99.90;;;;;;5076716;28;21033;-80
2022/06/15 11:10:25;;;;;;;6.20;2.60;;;29.70;99.90;;;;;;5077520;28;20462;-80
2022/06/15 11:12:55;;;;;;;4.90;3.03;;;29.70;99.90;;;;;;5076703;28;20454;-82
2022/06/15 11:18:01;;;;;;;5.03;2.27;;;29.80;99.90;;;;;;5077382;28;20480;-80
2022/06/15 11:18:26;;;;;;;4.00;2.00;;;29.90;99.90;;;;;;5078010;28;20446;-81
2022/06/15 11:21:01;;;;;;;7.43;2.03;;;30.10;99.90;;;;;;5077532;28;20445;-81
2022/06/15 11:23:34;;;;;;;4.97;2.00;;;30.10;99.90;;;;;;5076386;28;20482;-81
2022/06/15 11:26:51;;;;;;;4.60;2.20;;;30.30;99.90;;;;;;5079702;28;20531;-78
2022/06/15 11:28:56;;;;;;;6.07;2.33;;;30.40;99.90;;;;;;5084678;28;20501;-79
2022/06/15 11:31:27;;;;;;;4.87;1.80;;;30.80;99.90;;;;;;5082188;28;20547;-80
2022/06/15 11:34:00;;;;;;;5.20;2.70;;;30.60;99.90;;;;;;5081596;28;20433;-78
2022/06/15 11:36:33;;;;;;;4.13;1.83;;;30.70;99.90;;;;;;5082332;28;20582;-80
2022/06/15 11:39:10;;;;;;;5.10;2.00;;;31.00;99.90;;;;;;5083100;28;20486;-80
2022/06/15 11:41:44;;;;;;;7.13;2.60;;;31.10;99.90;;;;;;5086017;28;20466;-78
2022/06/15 11:44:19;;;;;;;7.20;3.30;;;31.20;99.90;;;;;;5080607;28;20509;-79
2022/06/15 11:47:07;;;;;;;4.80;2.37;;;30.90;99.90;;;;;;5082949;28;20982;-79
2022/06/15 11:49:40;;;;;;;3.87;2.00;;;31.00;99.90;;;;;;5082805;28;20453;-80
2022/06/15 11:52:39;;;;;;;6.73;2.47;;;31.30;99.90;;;;;;5079894;28;20445;-81
2022/06/15 11:55:21;;;;;;;4.13;2.27;;;31.60;99.90;;;;;;5077258;28;20523;-80
2022/06/15 11:58:02;;;;;;;4.57;2.10;;;31.90;99.90;;;;;;5077369;28;20439;-79
2022/06/15 12:00:34;;;;;;;4.70;2.20;;;32.30;99.90;;;;;;5077692;28;20456;-80
2022/06/15 12:03:17;;;;;;;5.40;2.03;;;32.20;99.90;;;;;;5077268;28;20483;-78
2022/06/15 12:05:47;;;;;;;5.87;2.47;;;32.40;99.90;;;;;;5076154;28;20471;-80
2022/06/15 12:08:29;;;;;;;3.03;1.80;;;32.30;99.90;;;;;;5076291;28;20466;-80
2022/06/15 12:11:01;;;;;;;5.47;2.00;;;32.70;99.90;;;;;;5076333;28;20459;-81
2022/06/15 12:13:45;;;;;;;6.30;2.10;;;32.80;99.90;;;;;;5075331;28;20451;-81
2022/06/15 12:16:17;;;;;;;4.80;2.00;;;33.00;99.90;;;;;;5079732;28;20534;-81
2022/06/15 12:19:04;;;;;;;6.77;2.33;;;33.10;96.10;;;;;;5076787;28;20868;-80
2022/06/15 12:21:39;;;;;;;4.33;1.70;;;33.20;99.10;;;;;;5078274;28;20530;-80
2022/06/15 12:24:13;;;;;;;4.10;2.13;;;33.20;99.60;;;;;;5075514;28;20573;-79
2022/06/15 12:26:49;;;;;;;4.00;1.60;;;33.40;97.90;;;;;;5078067;28;20922;-82
2022/06/15 12:29:27;;;;;;;4.70;2.10;;;33.30;99.30;;;;;;5076463;28;20496;-82
2022/06/15 12:32:12;;;;;;;4.33;1.93;;;33.10;92.00;;;;;;5076451;28;20474;-80
2022/06/15 12:34:45;;;;;;;5.60;2.10;;;33.20;94.80;;;;;;5076847;28;20445;-80
2022/06/15 12:37:23;;;;;;;3.70;1.67;;;33.20;96.90;;;;;;5076876;28;20485;-80
2022/06/15 12:40:00;;;;;;;5.93;1.93;;;33.50;99.90;;;;;;5075459;28;20486;-80
2022/06/15 12:42:28;;;;;;;6.97;1.83;;;33.70;99.90;;;;;;5077893;28;20493;-81
2022/06/15 12:44:59;;;;;;;4.07;1.70;;;33.80;95.00;;;;;;5081355;28;20451;-78
2022/06/15 12:47:29;;;;;;;7.47;1.80;;;34.00;93.40;;;;;;5085496;28;20865;-80
2022/06/15 12:50:16;;;;;;;3.60;1.97;;;34.30;93.90;;;;;;5082890;28;20554;-80
2022/06/15 12:52:50;;;;;;;6.00;1.80;;;34.20;91.80;;;;;;5085781;28;20474;-78
2022/06/15 12:55:25;;;;;;;3.17;1.63;;;34.50;88.20;;;;;;5088223;28;20484;-78
2022/06/15 12:57:57;;;;;;;8.53;2.20;;;34.50;90.60;;;;;;5084910;28;20499;-80
2022/06/15 13:00:31;;;;;;;4.40;1.93;;;34.80;94.70;;;;;;5079797;28;20963;-80
2022/06/15 13:03:08;;;;;;;3.93;1.60;;;35.10;90.50;;;;;;5081399;28;20551;-80
2022/06/15 13:05:38;;;;;;;3.30;1.90;;;35.40;95.20;;;;;;5083741;28;20511;-81
2022/06/15 13:08:21;;;;;;;5.80;1.90;;;35.30;82.00;;;;;;5084736;28;20458;-78
2022/06/15 13:11:10;;;;;;;4.97;2.57;;;35.50;93.00;;;;;;5082896;28;20452;-81
2022/06/15 13:13:41;;;;;;;6.27;2.53;;;35.40;80.90;;;;;;5080175;28;20472;-80
2022/06/15 13:16:10;;;;;;;5.70;1.80;;;35.60;92.90;;;;;;5080301;28;20502;-81
2022/06/15 13:18:46;;;;;;;5.57;1.90;;;35.80;93.60;;;;;;5080566;28;20494;-81
2022/06/15 13:21:13;;;;;;;5.13;2.00;;;35.90;85.90;;;;;;5079779;28;20813;-81